Aeroporto :
LOGIN :

Iscrizione | Disclaimer

   EN    FR    IT 

 










Sommario :    VFR   VFR Marginale   IFR   IFR Intensivo   IFR Molto Intensivo
Visibilità : 
Base nubi : 
>= 8 km
>= 3000ft
5 / 8 km
1000 / 3000 ft
1500m / 5 km
500 / 1000 ft
800 / 1500m
200 / 500 ft
< 800m
< 200 ft
Simboli :   Temporali  Nebbia  Neve Forte  Precipitazioni Forti  Vento > 20 kt
SIGMETs :   Varie  Temporali  Ghiacco  Turbolenza  Onda orograficha  Ceneri Vulcaniche






- Altitudine del aeroporto : 74 ft
- Codice IATA : MRS


LFML - Marseille / Marignane

ULTIMO METAR :
  • 081900Z AUTO 21003KT CAVOK 16/04 Q1024 NOSIG

METARs OBSOLETI :
  • 081830Z AUTO 24003KT CAVOK 15/05 Q1024 NOSIG
  • 081800Z AUTO 25006KT CAVOK 16/06 Q1024 TEMPO 19012KT
  • 081730Z AUTO 25006KT CAVOK 17/04 Q1024 TEMPO 19012KT
  • 081700Z AUTO 27004KT CAVOK 18/07 Q1024 BECMG 19012KT
  • 081630Z AUTO 27006KT CAVOK 19/06 Q1024 BECMG 19012KT
  • 081600Z AUTO 26007KT CAVOK 19/04 Q1024 BECMG 19012KT

TAF TAF LFML
Valido dal 08 a 15 ore il 09 a 21 ore UTC


081400Z 0815/0921 19012KT CAVOK
BECMG 0819/0820 VRB03KT
BECMG 0908/0910 21010KT
ATIS : +33 4 42 31 15 15



MetMap, La meteo Aeronautica in un colpo d'occhio ! - Copyright ORBIFLY Dicembre 2007 - Disclaimer

ORBIFLY MET'MAP TEAM :

Programmazione e sviluppo : Alexandra Zaïnal
Concezione : Baudouin d'Aumeries
Aiuto per la programmazione : Marc-Olivier Méhu
Supporto tecnico e logistico : Manuel Goepfert
Aiuto per la traduzione : Arnaldo La Scala

Contatto : metmap@orbifly.com




FONTI E CREDITI :

   NOAA